Weather observations for the past three days for
Burlington Municipal Airport
Imperial (Metric)
Date Time (cdt) Wind (mph) Vis. (mi.) Weather Sky Cond. Temperature (ºF) Relative Humidity Wind Chill (°F) Heat Index (°F) Pressure Precipitation (in)
Air Dwpt 6 hour altimeter (in) sea level (mb) 1 hr 3 hr 6 hr
Max. Min.
06 04:15 Calm 10.00 Fair CLR 32 28.8 88% 29.88 0.0
06 03:55 Calm 10.00 Fair CLR 32.9 30 89% 29.89 0.0
06 03:35 Calm 10.00 Fair CLR 33.3 29.8 87% 29.88 0.0
06 03:15 Calm 10.00 Fair CLR 33.3 30 88% 29.87 0.0
06 02:55 Calm 10.00 Fair CLR 33.3 29.8 87% 29.87 0.0
06 02:35 Calm 10.00 Fair CLR 36.5 31.3 81% 29.87 0.0
06 02:15 Calm 10.00 Fair CLR 37.6 30.6 76% 29.86 0.0
06 01:55 Calm 10.00 Fair CLR 37.4 31.6 80% 29.86 0.0
06 01:35 Calm 10.00 Partly Cloudy SCT085 38.5 30.6 73% 29.87 0.0
06 01:15 Calm 10.00 Overcast OVC085 41 28 60% 29.87 0.0
06 00:55 Calm 10.00 Overcast OVC085 40.1 29.7 54.1 39.9 66% 29.86 0.0
06 00:35 Calm 10.00 Overcast OVC085 41.2 29.7 64% 29.86 0.0
06 00:15 Calm 10.00 Mostly Cloudy BKN085 42.1 26.4 54% 29.87 0.0
05 23:55 Calm 10.00 Partly Cloudy SCT085 43.7 25.5 49% 29.87 0.0
05 23:35 Calm 10.00 Fair CLR 44.4 25.9 48% 29.87 0.0
05 23:15 N 5 10.00 Fair CLR 45.7 25.9 46% 44 29.87 0.0
05 22:55 N 5 10.00 Fair CLR 46 26.6 47% 44 29.86 0.0
05 22:35 N 5 10.00 Fair CLR 46.8 27.5 47% 45 29.85 0.0
05 22:15 N 5 10.00 Fair CLR 48.2 26.1 42% 47 29.85 0.0
05 21:55 N 5 10.00 Fair CLR 47.3 28 47% 46 29.84 0.0
05 21:35 N 3 10.00 Fair CLR 47.7 27.1 45% 29.83 0.0
05 21:15 NW 5 10.00 Fair CLR 48.6 26.6 43% 47 29.83 0.0
05 20:55 NW 7 10.00 Fair CLR 50.9 23.7 35% 29.82 0.0
05 20:35 NW 8 10.00 Fair CLR 51.3 24.1 35% 29.81 0.0
05 20:15 N 12 G 20 10.00 Fair CLR 52 23.7 33% 29.8 0.0
05 19:55 NW 8 10.00 Fair CLR 52.3 24.6 34% 29.79 0.0
05 19:35 NW 8 10.00 Fair CLR 52.9 25.3 34% 29.78 0.0
05 19:15 NW 7 10.00 Fair CLR 54 24.4 32% 29.78 0.0
05 18:55 NW 10 10.00 Fair CLR 54 25 58.1 54 33% 29.77 0.0
05 18:35 NW 7 10.00 Fair CLR 54.5 24.8 32% 29.77 0.0
05 18:15 NW 6 10.00 Fair CLR 54.9 26.2 33% 29.78 0.0
05 17:55 W 10 10.00 Fair CLR 55.4 24.3 30% 29.78 0.0
05 17:35 NW 8 10.00 Fair CLR 55.9 25.7 31% 29.78 0.0
05 17:15 NW 10 10.00 Fair CLR 56.1 24.4 29% 29.78 0.0
05 16:55 W 14 G 17 10.00 Fair CLR 55.8 24.1 29% 29.78 0.0
05 16:35 NW 12 G 17 10.00 Fair CLR 57.2 24.3 28% 29.77 0.0
05 16:15 NW 12 G 20 10.00 Fair CLR 57 23.4 27% 29.77 0.0
05 15:55 NW 8 10.00 Fair CLR 56.7 25.9 31% 29.77 0.0
05 15:35 W 15 G 18 10.00 Fair CLR 56.3 23.9 29% 29.78 0.0
05 15:15 NW 8 G 13 10.00 Fair CLR 56.3 25 30% 29.79 0.0
05 14:55 W 12 G 20 10.00 Fair CLR 56.5 23.9 28% 29.8 0.0
05 14:35 NW 17 G 24 10.00 Fair CLR 56.8 25 29% 29.8 0.0
05 14:15 W 12 G 24 10.00 Fair CLR 55.4 23.4 29% 29.8 0.0
05 13:55 NW 15 G 20 10.00 Fair CLR 56.3 23.9 29% 29.8 0.0
05 13:35 NW 15 G 22 10.00 Fair CLR 55.4 22.5 28% 29.8 0.0
05 13:15 NW 15 G 21 10.00 Fair CLR 55.4 20.7 26% 29.79 0.0
05 12:55 NW 16 G 23 10.00 Fair CLR 55.2 21.7 55.2 45.5 27% 29.78 0.0
05 12:35 W 12 10.00 Fair CLR 53.8 24.1 32% 29.79 0.0
05 12:15 W 8 G 21 10.00 Fair CLR 53.1 22.6 31% 29.79 0.0
05 11:55 W 12 G 23 10.00 Fair CLR 53.8 21.9 29% 29.78 0.0
05 11:35 W 9 10.00 Fair CLR 54.7 24.4 31% 29.77 0.0
05 11:15 W 8 G 20 10.00 Fair CLR 54.3 24.8 32% 29.78 0.0
05 10:35 W 10 G 20 10.00 Fair CLR 53.4 25.5 34% 29.77 0.0
05 10:15 W 15 G 20 10.00 Fair CLR 52.7 25.5 35% 29.78 0.0
05 09:55 W 12 G 18 10.00 Fair CLR 52.9 24.4 33% 29.78 0.0
05 09:35 W 13 G 17 10.00 Fair CLR 52 26.2 37% 29.77 0.0
05 09:15 NW 15 G 18 10.00 Fair CLR 51.4 25.7 37% 29.78 0.0
05 08:55 NW 13 G 17 10.00 Fair CLR 51.8 26.8 38% 29.79 0.0
05 08:35 W 9 G 17 10.00 Fair CLR 50.7 26.4 39% 29.79 0.0
05 08:15 NW 9 10.00 Fair CLR 48 27.9 46% 44 29.79 0.0
05 07:55 NW 7 10.00 Fair CLR 47.3 26.8 45% 44 29.78 0.0
05 07:35 NW 6 10.00 Fair CLR 46.8 27.5 47% 44 29.79 0.0
05 07:15 NW 7 10.00 Fair CLR 45.5 29.1 53% 42 29.77 0.0
05 06:55 NW 6 10.00 Fair CLR 45.7 28.4 54 44.6 51% 43 29.77 0.0
05 06:35 NW 5 10.00 Fair CLR 44.6 29.8 56% 43 29.74 0.0
05 06:15 NW 3 10.00 Fair CLR 44.6 29.8 56% 29.73 0.0
05 05:55 W 3 10.00 Mostly Cloudy SCT100 BKN120 45.7 28.6 51% 29.75 0.0
05 05:35 NW 7 10.00 Mostly Cloudy SCT100 BKN120 46.4 27.9 49% 43 29.74 0.0
05 05:15 N 6 10.00 Fair CLR 46.4 27.3 47% 44 29.72 0.0
05 04:55 NW 7 10.00 Fair CLR 46.8 27.1 46% 44 29.72 0.0
05 04:35 N 8 10.00 Fair CLR 47.1 27.9 47% 44 29.71 0.0
05 04:15 NW 7 10.00 Fair CLR 46.4 29.3 51% 43 29.72 0.0
05 03:55 N 6 10.00 Fair CLR 47.5 28.6 48% 45 29.71 0.0
05 03:35 NW 13 10.00 Fair CLR 48.4 28.4 46% 44 29.69 0.0
05 03:15 N 13 G 16 10.00 Fair CLR 49.5 29.8 47% 45 29.67 0.0
05 02:55 N 9 10.00 Fair CLR 50 29.8 46% 47 29.66 0.0
05 02:35 NW 13 G 17 10.00 Fair CLR 50.2 29.5 45% 29.64 0.0
05 02:15 NW 10 G 16 10.00 Fair CLR 51.1 29.7 44% 29.65 0.0
05 01:55 NW 17 10.00 Fair CLR 52.7 30.6 43% 29.65 0.0
05 01:35 NW 13 10.00 Fair CLR 52.7 32.4 46% 29.63 0.0
05 01:15 NW 9 10.00 Fair CLR 53.8 32.2 44% 29.61 0.0
05 00:55 NW 7 10.00 Fair CLR 53.2 32.5 72.9 52.5 45% 29.61 0.0
05 00:35 NW 8 10.00 Partly Cloudy SCT100 54.9 32 42% 29.61 0.0
05 00:15 NW 12 10.00 Mostly Cloudy BKN100 BKN120 57.6 31.5 37% 29.6 0.0
04 23:55 NW 12 G 16 10.00 Mostly Cloudy BKN110 59 30.7 34% 29.59 0.0
04 23:35 W 7 10.00 Partly Cloudy SCT100 59.9 29.7 32% 29.57 0.0
04 23:15 W 7 10.00 Partly Cloudy SCT100 60.3 30 32% 29.57 0.0
04 22:55 W 7 10.00 Partly Cloudy SCT090 60.4 32.2 35% 29.55 0.0
04 22:35 W 7 10.00 Fair CLR 59.9 34.9 39% 29.55 0.0
04 22:15 W 8 10.00 Fair CLR 62.4 32.2 32% 29.55 0.0
04 21:55 NW 15 G 21 10.00 Partly Cloudy SCT100 63.1 32.4 32% 29.54 0.0
04 21:35 NW 14 G 22 10.00 Partly Cloudy SCT100 64.8 36.9 36% 29.54 0.0
04 21:15 NW 13 G 16 10.00 Fair CLR 64.9 39.4 39% 29.52 0.0
04 20:55 NW 12 G 20 10.00 Fair CLR 67.5 39.4 36% 29.5 0.0
04 20:35 NW 9 10.00 Fair CLR 68.7 42.1 38% 29.49 0.0
04 20:15 NW 10 10.00 Fair CLR 68.5 43.7 41% 29.47 0.0
04 19:55 SW 6 10.00 Partly Cloudy SCT110 68.7 46.4 45% 29.43 0.0
04 19:30 SW 3 10.00 Partly Cloudy SCT110 70.7 45.5 41% 29.42 0.0
04 19:15 Calm 10.00 Fair CLR 71.6 45.9 40% 29.41 0.0
04 18:55 SW 8 10.00 Partly Cloudy SCT100 73 45 79.7 69.3 37% 29.41 0.0
04 18:35 SW 9 10.00 Mostly Cloudy SCT080 BKN100 73.4 46.2 38% 29.42 0.0
04 18:15 W 9 G 39 5.00 Mostly Cloudy BKN090 BKN110 69.3 45.5 43% 29.42 0.0
04 17:55 W 13 G 21 10.00 Partly Cloudy SCT100 77 41.5 28% 78 29.43 0.0
04 17:35 W 10 G 22 10.00 Mostly Cloudy BKN110 77.9 41.4 27% 78 29.43 0.0
04 17:15 SW 13 G 23 10.00 Partly Cloudy SCT110 77 40.3 27% 77 29.44 0.0
04 16:55 SW 15 G 29 10.00 Partly Cloudy SCT100 79.2 39.2 24% 78 29.44 0.0
04 16:35 SW 22 G 26 10.00 Partly Cloudy and Breezy SCT100 SCT110 79 39.7 25% 78 29.44 0.0
04 16:15 SW 20 G 30 10.00 Partly Cloudy SCT095 79.3 39.7 24% 78 29.45 0.0
04 15:55 SW 20 G 29 10.00 Partly Cloudy SCT095 78.4 39.2 25% 78 29.45 0.0
04 15:35 W 14 G 24 10.00 Fair CLR 78.8 38.5 24% 78 29.46 0.0
04 15:15 W 15 G 24 10.00 Fair CLR 78.8 37.4 23% 78 29.47 0.0
04 14:55 W 15 G 28 10.00 Fair CLR 78.3 37.2 23% 78 29.48 0.0
04 14:35 SW 21 G 26 10.00 Fair and Breezy CLR 77.4 35.6 22% 77 29.48 0.0
04 14:15 SW 15 G 23 10.00 Fair CLR 77.2 35.6 22% 77 29.48 0.0
04 13:55 SW 15 G 25 10.00 Fair CLR 77.5 36.7 23% 77 29.48 0.0
04 13:35 SW 17 G 30 10.00 Fair CLR 76.8 38.3 25% 77 29.49 0.0
04 13:15 SW 18 G 31 10.00 Fair CLR 76.1 36.3 24% 77 29.5 0.0
04 12:55 W 14 G 25 10.00 Fair CLR 75.6 36.3 75.7 49.8 24% 77 29.5 0.0
04 12:35 SW 22 G 31 10.00 Fair and Breezy CLR 74.8 36.5 25% 29.51 0.0
04 12:15 SW 17 G 30 10.00 Fair CLR 74.5 36.3 25% 29.52 0.0
04 11:35 SW 17 G 23 10.00 Fair CLR 74.1 35.8 25% 29.54 0.0
04 11:15 SW 15 G 22 10.00 Fair CLR 72.7 36.9 27% 29.54 0.0
04 10:55 SW 15 G 25 10.00 Fair CLR 72.1 37 28% 29.55 0.0
04 10:35 SW 15 G 25 10.00 Fair CLR 71.4 36.9 28% 29.55 0.0
04 10:15 SW 18 G 24 10.00 Fair CLR 70.3 36.5 29% 29.56 0.0
04 09:55 SW 20 G 25 10.00 Fair CLR 70 37 30% 29.56 0.0
04 09:35 SW 15 G 20 10.00 Fair CLR 68.9 37.8 32% 29.57 0.0
04 09:15 SW 10 G 16 10.00 Fair CLR 66.4 38.8 36% 29.57 0.0
04 08:55 SW 8 G 17 10.00 Fair CLR 63.9 40.1 42% 29.58 0.0
04 08:35 S 9 10.00 Fair CLR 61 42.3 50% 29.59 0.0
04 08:15 S 7 10.00 Fair CLR 58.3 43 57% 29.6 0.0
04 07:55 SW 8 10.00 Fair CLR 55.8 41.7 59% 29.6 0.0
04 07:35 SW 7 10.00 Fair CLR 53.6 41.5 64% 29.6 0.0
04 06:55 S 8 10.00 Fair CLR 49.6 41 50.2 43.2 72% 47 29.6 0.0
04 06:35 SW 6 10.00 Fair CLR 47.7 41 78% 45 29.6 0.0
04 06:15 S 6 10.00 Fair CLR 46.6 40.1 78% 44 29.6 0.0
04 05:55 S 7 10.00 Fair CLR 45.3 39.6 80% 42 29.6 0.0
04 05:35 SW 5 10.00 Fair CLR 44.1 39.2 83% 42 29.6 0.0
04 05:15 S 3 10.00 Fair CLR 43.5 39.2 85% 29.6 0.0
04 04:55 S 5 10.00 Fair CLR 44.4 39.2 82% 42 29.61 0.0
04 04:35 SW 6 10.00 Fair CLR 46.2 39.6 78% 44 29.62 0.0
04 04:15 SW 3 10.00 Fair CLR 45.9 40.5 82% 29.62 0.0
04 03:55 Calm 10.00 Fair CLR 43.7 40.3 88% 29.62 0.0
04 03:35 SW 3 10.00 Fair CLR 46.9 41.5 82% 29.62 0.0
04 03:15 Calm 10.00 Fair CLR 46.9 41.9 83% 29.63 0.0
04 02:55 Calm 10.00 Fair CLR 47.7 41.9 81% 29.64 0.0
04 02:35 SW 3 10.00 Fair CLR 48.4 41.9 78% 29.64 0.0
04 02:15 SW 5 10.00 Fair CLR 47.8 41.9 80% 46 29.65 0.0
04 01:55 SW 6 10.00 Fair CLR 49.3 42.6 78% 47 29.65 0.0
04 01:35 SW 5 10.00 Fair CLR 49.6 42.8 77% 48 29.66 0.0
04 01:15 S 6 10.00 Fair CLR 48.9 42.1 77% 47 29.66 0.0
04 00:55 S 5 10.00 Fair CLR 48.6 42.3 67.1 48 79% 47 29.67 0.0
04 00:35 S 3 10.00 Fair CLR 51.4 43 73% 29.67 0.0
04 00:15 Calm 10.00 Fair CLR 51.4 43.2 73% 29.67 0.0
03 23:55 Calm 10.00 Fair CLR 51.4 43.3 74% 29.67 0.0
03 23:35 SW 3 10.00 Fair CLR 51.1 43.7 76% 29.67 0.0
03 23:15 S 5 10.00 Fair CLR 51.8 44.1 75% 29.67 0.0
03 22:55 SW 3 10.00 Fair CLR 52.7 43 70% 29.67 0.0
03 22:35 SW 5 10.00 Fair CLR 52.7 43.9 72% 29.68 0.0
03 22:15 SW 5 10.00 Fair CLR 49.6 43.7 80% 48 29.68 0.0
03 21:55 S 6 10.00 Fair CLR 52.9 44.1 72% 29.68 0.0
03 21:35 Calm 10.00 Fair CLR 51.8 43.7 74% 29.68 0.0
03 21:15 Calm 10.00 Fair CLR 53.2 44.4 72% 29.68 0.0
03 20:55 Calm 10.00 Fair CLR 55.8 43 62% 29.67 0.0
03 20:35 Calm 10.00 Fair CLR 58.8 42.8 55% 29.67 0.0
03 20:15 Calm 10.00 Fair CLR 60.1 42.1 52% 29.67 0.0
03 19:55 Calm 10.00 Fair CLR 62.1 41.4 47% 29.67 0.0
03 19:35 SW 5 10.00 Fair CLR 64.2 41.9 44% 29.67 0.0
03 19:15 SW 5 10.00 Fair CLR 66 41.4 41% 29.66 0.0
03 18:55 W 10 G 16 10.00 Fair CLR 67.1 40.8 68 62.4 38% 29.67 0.0
03 18:35 SW 12 G 20 10.00 Fair CLR 67.5 40.6 38% 29.67 0.0
03 18:15 SW 13 10.00 Fair CLR 67.6 41.9 39% 29.67 0.0
03 17:55 W 12 G 18 10.00 Fair CLR 67.6 40.8 38% 29.67 0.0
03 17:35 SW 10 G 18 10.00 Fair CLR 68 41 38% 29.68 0.0
03 17:15 SW 15 G 28 10.00 Fair CLR 67.8 39.9 36% 29.68 0.0
03 16:55 SW 15 G 29 10.00 Fair CLR 67.5 40.8 38% 29.68 0.0
03 16:35 SW 17 G 26 10.00 Fair CLR 67.6 40.6 37% 29.68 0.0
03 16:15 SW 17 G 22 10.00 Partly Cloudy SCT060 66.6 40.1 38% 29.69 0.0
03 15:55 SW 22 G 28 10.00 Fair and Breezy CLR 66.6 39.4 37% 29.7 0.0
03 15:35 SW 20 G 29 10.00 Partly Cloudy SCT060 66 38.8 37% 29.71 0.0
03 15:15 SW 24 G 32 10.00 Partly Cloudy and Breezy SCT060 66 40.6 40% 29.72 0.0
03 14:55 SW 20 G 31 10.00 Partly Cloudy SCT050 64.6 41.4 43% 29.73 0.0
03 14:35 SW 21 G 36 10.00 Mostly Cloudy and Breezy BKN050 63.5 41 44% 29.75 0.0
03 14:15 S 26 G 32 10.00 Partly Cloudy and Windy SCT055 63.9 39.6 41% 29.75 0.0
03 13:55 SW 22 G 31 10.00 Partly Cloudy and Breezy SCT110 64.4 38.1 38% 29.75 0.0
03 13:35 SW 23 G 31 10.00 Partly Cloudy and Breezy SCT110 64.4 37.9 38% 29.75 0.0
03 13:15 S 22 G 31 10.00 Mostly Cloudy and Breezy BKN110 64.6 37.8 37% 29.76 0.0
03 12:55 S 23 G 32 10.00 Partly Cloudy and Breezy SCT095 62.4 39.6 62.4 48.2 43% 29.77 0.0
03 12:35 S 20 G 31 10.00 Partly Cloudy SCT095 60.3 39.9 47% 29.78 0.0
03 12:15 S 22 G 36 10.00 Partly Cloudy and Breezy SCT095 59.2 41.7 53% 29.79 0.0
03 11:35 S 18 G 26 10.00 Overcast SCT075 OVC085 54.7 39.7 57% 29.82 0.0
03 11:15 S 17 G 24 10.00 Overcast SCT065 OVC075 53.1 41.5 65% 29.82 0.0
03 10:55 SW 17 G 24 10.00 Overcast OVC065 50.9 42.1 72% 29.85 0.0
03 10:35 SW 22 G 33 10.00 Overcast and Breezy SCT034 BKN075 OVC095 52.3 41.5 67% 29.86 0.0
03 10:15 SW 29 G 37 10.00 Overcast and Windy SCT034 BKN075 OVC110 55.4 39.9 56% 29.86 0.0
03 09:55 SW 18 G 29 10.00 Overcast OVC120 55 38.7 54% 29.86 0.0
03 09:35 SW 17 G 24 10.00 Mostly Cloudy BKN120 54.9 38.5 54% 29.87 0.0
03 09:15 SW 17 G 25 10.00 Fair CLR 56.1 38.7 52% 29.86 0.0
03 08:55 SW 16 G 23 10.00 Fair CLR 55.8 37.4 50% 29.87 0.0
03 08:35 SW 21 G 24 10.00 Fair and Breezy CLR 54.5 35.8 49% 29.88 0.0
03 08:15 SW 16 G 25 10.00 Fair CLR 53.1 34.3 49% 29.89 0.0
03 07:55 SW 13 10.00 Partly Cloudy SCT100 51.6 34.2 51% 29.89 0.0
03 07:35 SW 12 G 17 10.00 Mostly Cloudy BKN100 50 33.1 52% 46 29.89 0.0
03 07:15 SW 12 10.00 Partly Cloudy SCT100 50 32.7 52% 46 29.89 0.0
03 06:55 SW 12 10.00 Mostly Cloudy BKN100 48.2 32 49.1 45.3 54% 44 29.89 0.0
03 06:35 SW 10 10.00 Mostly Cloudy BKN100 48.2 32 54% 44 29.88 0.0
03 06:15 SW 10 10.00 Fair CLR 47.5 32 55% 43 29.88 0.0
03 05:35 SW 12 G 17 10.00 Partly Cloudy SCT110 47.7 31.1 53% 43 29.88 0.0
03 05:15 SW 14 10.00 Fair CLR 47.5 30.4 52% 42 29.88 0.0
03 04:55 SW 12 10.00 Fair CLR 46.8 30.2 53% 42 29.89 0.0
03 04:35 SW 9 10.00 Fair CLR 46.6 30.2 53% 43 29.89 0.0
Date Time (cdt) Wind (mph) Vis. (mi.) Weather Sky Cond. Air Dwpt Max. Min. Relative Humidity Wind Chill (°F) Heat Index (°F) altimeter (in) sea level (mb) 1 hr 3 hr 6 hr
6 hour
Temperature (ºF) Pressure Precipitation (in)